Map

Track Data

SID SEASON NUMBER BASIN SUBBASIN NAME ISO_TIME NATURE LAT LON WMO_WIND WMO_PRES WMO_AGENCY TRACK_TYPE DIST2LAND LANDFALL IFLAG USA_AGENCY USA_ATCF_ID USA_LAT USA_LON USA_RECORD USA_STATUS USA_WIND USA_PRES USA_SSHS USA_R34_NE USA_R34_SE USA_R34_SW USA_R34_NW USA_R50_NE USA_R50_SE USA_R50_SW USA_R50_NW USA_R64_NE USA_R64_SE USA_R64_SW USA_R64_NW USA_POCI USA_ROCI USA_RMW USA_EYE TOKYO_LAT TOKYO_LON TOKYO_GRADE TOKYO_WIND TOKYO_PRES TOKYO_R50_DIR TOKYO_R50_LONG TOKYO_R50_SHORT TOKYO_R30_DIR TOKYO_R30_LONG TOKYO_R30_SHORT TOKYO_LAND CMA_LAT CMA_LON CMA_CAT CMA_WIND CMA_PRES HKO_LAT HKO_LON HKO_CAT HKO_WIND HKO_PRES NEWDELHI_LAT NEWDELHI_LON NEWDELHI_GRADE NEWDELHI_WIND NEWDELHI_PRES NEWDELHI_CI NEWDELHI_DP NEWDELHI_POCI REUNION_LAT REUNION_LON REUNION_TYPE REUNION_WIND REUNION_PRES REUNION_TNUM REUNION_CI REUNION_RMW REUNION_R34_NE REUNION_R34_SE REUNION_R34_SW REUNION_R34_NW REUNION_R50_NE REUNION_R50_SE REUNION_R50_SW REUNION_R50_NW REUNION_R64_NE REUNION_R64_SE REUNION_R64_SW REUNION_R64_NW BOM_LAT BOM_LON BOM_TYPE BOM_WIND BOM_PRES BOM_TNUM BOM_CI BOM_RMW BOM_R34_NE BOM_R34_SE BOM_R34_SW BOM_R34_NW BOM_R50_NE BOM_R50_SE BOM_R50_SW BOM_R50_NW BOM_R64_NE BOM_R64_SE BOM_R64_SW BOM_R64_NW BOM_ROCI BOM_POCI BOM_EYE BOM_POS_METHOD BOM_PRES_METHOD NADI_LAT NADI_LON NADI_CAT NADI_WIND NADI_PRES WELLINGTON_LAT WELLINGTON_LON WELLINGTON_WIND WELLINGTON_PRES DS824_LAT DS824_LON DS824_STAGE DS824_WIND DS824_PRES TD9636_LAT TD9636_LON TD9636_STAGE TD9636_WIND TD9636_PRES TD9635_LAT TD9635_LON TD9635_WIND TD9635_PRES TD9635_ROCI NEUMANN_LAT NEUMANN_LON NEUMANN_CLASS NEUMANN_WIND NEUMANN_PRES MLC_LAT MLC_LON MLC_CLASS MLC_WIND MLC_PRES USA_GUST BOM_GUST BOM_GUST_PER REUNION_GUST REUNION_GUST_PER USA_SEAHGT USA_SEARAD_NE USA_SEARAD_SE USA_SEARAD_SW USA_SEARAD_NW STORM_SPEED STORM_DIR
1982183N13253 1982 41 EP MM CARLOTTA 1982-07-01 12:00:00 TS 13.0000 -107.100 30 hurdat_epa main 707 679 O_________O___ hurdat_epa EP031982 13.0000 -107.100 TD 30 -1 13.0000 -107.100 1 30 6 352
1982183N13253 1982 41 EP MM CARLOTTA 1982-07-01 15:00:00 TS 13.3061 -107.137 main 679 658 P_________P___ EP031982 13.3175 -107.113 TD 32 -1 13.2718 -107.211 1 31 6 347
1982183N13253 1982 41 EP MM CARLOTTA 1982-07-01 18:00:00 TS 13.5837 -107.234 35 hurdat_epa main 658 653 O_________P___ hurdat_epa EP031982 13.6000 -107.200 TS 35 0 13.5349 -107.337 1 32 6 330
1982183N13253 1982 41 EP MM CARLOTTA 1982-07-01 21:00:00 TS 13.8120 -107.433 main 653 650 P_________P___ EP031982 13.8225 -107.412 TS 35 0 13.7806 -107.495 1 33 6 313
1982183N13253 1982 41 EP MM CARLOTTA 1982-07-02 00:00:00 TS 14.0000 -107.700 35 hurdat_epa main 657 654 O_________O___ hurdat_epa EP031982 14.0000 -107.700 TS 35 0 14.0000 -107.700 2 35 6 303
1982183N13253 1982 41 EP MM CARLOTTA 1982-07-02 03:00:00 TS 14.1596 -107.980 main 655 655 P_________P___ EP031982 14.1500 -107.985 TS 35 0 14.1884 -107.963 2 35 7 299
1982183N13253 1982 41 EP MM CARLOTTA 1982-07-02 06:00:00 TS 14.3144 -108.294 35 hurdat_epa main 662 657 O_________P___ hurdat_epa EP031982 14.3000 -108.300 TS 35 0 14.3575 -108.275 2 35 7 299
1982183N13253 1982 41 EP MM CARLOTTA 1982-07-02 09:00:00 TS 14.5056 -108.633 main 663 661 P_________P___ EP031982 14.4999 -108.635 TS 35 0 14.5227 -108.625 2 35 8 299
1982183N13253 1982 41 EP MM CARLOTTA 1982-07-02 12:00:00 TS 14.7000 -109.000 35 hurdat_epa main 673 671 O_________O___ hurdat_epa EP031982 14.7000 -109.000 TS 35 0 14.7000 -109.000 2 35 8 295
1982183N13253 1982 41 EP MM CARLOTTA 1982-07-02 15:00:00 TS 14.8488 -109.392 main 694 686 P_________P___ EP031982 14.8350 -109.393 TS 37 0 14.8904 -109.391 2 37 8 293
1982183N13253 1982 41 EP MM CARLOTTA 1982-07-02 18:00:00 TS 15.0244 -109.800 40 hurdat_epa main 708 708 O_________P___ hurdat_epa EP031982 15.0000 -109.800 TS 40 0 15.0977 -109.800 2 40 9 299
1982183N13253 1982 41 EP MM CARLOTTA 1982-07-02 21:00:00 TS 15.2852 -110.208 main 715 715 P_________P___ EP031982 15.2700 -110.208 TS 42 0 15.3311 -110.210 2 42 10 307
1982183N13253 1982 41 EP MM CARLOTTA 1982-07-03 00:00:00 TS 15.6000 -110.600 45 hurdat_epa main 725 725 O_________O___ hurdat_epa EP031982 15.6000 -110.600 TS 45 0 15.6000 -110.600 2 45 10 312
1982183N13253 1982 41 EP MM CARLOTTA 1982-07-03 03:00:00 TS 15.9290 -110.949 main 729 729 P_________P___ EP031982 15.9424 -110.965 TS 45 0 15.8888 -110.899 2 45 9 316
1982183N13253 1982 41 EP MM CARLOTTA 1982-07-03 06:00:00 TS 16.2790 -111.271 45 hurdat_epa main 739 721 O_________P___ hurdat_epa EP031982 16.3000 -111.300 TS 45 0 16.2161 -111.185 2 45 9 320
1982183N13253 1982 41 EP MM CARLOTTA 1982-07-03 09:00:00 TS 16.6281 -111.565 main 724 689 P_________P___ EP031982 16.6423 -111.585 TS 45 0 16.5854 -111.503 2 45 9 320
1982183N13253 1982 41 EP MM CARLOTTA 1982-07-03 12:00:00 TS 17.0000 -111.900 45 hurdat_epa main 689 660 O_________O___ hurdat_epa EP031982 17.0000 -111.900 TS 45 0 17.0000 -111.900 2 45 11 317
1982183N13253 1982 41 EP MM CARLOTTA 1982-07-03 15:00:00 TS 17.3973 -112.325 main 660 640 P_________P___ EP031982 17.3621 -112.276 TS 47 0 17.5027 -112.473 2 46 13 313
1982183N13253 1982 41 EP MM CARLOTTA 1982-07-03 18:00:00 TS 17.8598 -112.881 50 hurdat_epa main 635 621 O_________P___ hurdat_epa EP031982 17.8000 -112.800 TS 50 0 18.0393 -113.124 2 47 16 310
1982183N13253 1982 41 EP MM CARLOTTA 1982-07-03 21:00:00 TS 18.4395 -113.635 main 627 620 P_________P___ EP031982 18.4007 -113.584 TS 50 0 18.5560 -113.789 2 48 18 308
1982183N13253 1982 41 EP MM CARLOTTA 1982-07-04 00:00:00 TS 19.0000 -114.400 50 hurdat_epa main 631 631 O_________O___ hurdat_epa EP031982 19.0000 -114.400 TS 50 0 19.0000 -114.400 2 50 16 308
1982183N13253 1982 41 EP MM CARLOTTA 1982-07-04 03:00:00 TS 19.4456 -114.997 main 649 642 P_________P___ EP031982 19.4822 -115.033 TS 50 0 19.3357 -114.890 2 48 12 307
1982183N13253 1982 41 EP MM CARLOTTA 1982-07-04 06:00:00 TS 19.7479 -115.453 50 hurdat_epa main 658 648 O_________P___ hurdat_epa EP031982 19.8000 -115.500 TS 50 0 19.5915 -115.314 2 47 8 300
1982183N13253 1982 41 EP MM CARLOTTA 1982-07-04 09:00:00 TS 19.8708 -115.767 main 657 657 P_________P___ EP031982 19.9022 -115.796 TS 47 0 19.7766 -115.680 2 46 5 286
1982183N13253 1982 41 EP MM CARLOTTA 1982-07-04 12:00:00 TS 19.9000 -116.000 45 hurdat_epa main 669 669 O_________O___ hurdat_epa EP031982 19.9000 -116.000 TS 45 0 19.9000 -116.000 2 45 5 281
1982183N13253 1982 41 EP MM CARLOTTA 1982-07-04 15:00:00 TS 19.9596 -116.263 main 679 679 P_________P___ EP031982 19.9575 -116.250 TS 40 0 19.9658 -116.302 2 41 5 281
1982183N13253 1982 41 EP MM CARLOTTA 1982-07-04 18:00:00 TS 19.9949 -116.515 35 hurdat_epa main 693 693 O_________P___ hurdat_epa EP031982 20.0000 -116.500 TS 35 0 19.9795 -116.561 2 37 5 274
1982183N13253 1982 41 EP MM CARLOTTA 1982-07-04 21:00:00 TS 19.9890 -116.760 main 713 713 P_________P___ EP031982 19.9925 -116.750 TS 32 -1 19.9784 -116.789 2 33 5 271
1982183N13253 1982 41 EP MM CARLOTTA 1982-07-05 00:00:00 TS 20.0000 -117.000 30 hurdat_epa main 727 727 O_________O___ hurdat_epa EP031982 20.0000 -117.000 TD 30 -1 20.0000 -117.000 1 30 5 281
1982183N13253 1982 41 EP MM CARLOTTA 1982-07-05 03:00:00 TS 20.0781 -117.258 main 741 741 P_________P___ EP031982 20.0775 -117.265 TD 27 -1 20.0800 -117.239 1 28 5 293
1982183N13253 1982 41 EP MM CARLOTTA 1982-07-05 06:00:00 TS 20.1975 -117.490 25 hurdat_epa main 748 748 O_________P___ hurdat_epa EP031982 20.2000 -117.500 TD 25 -1 20.1900 -117.460 1 27 5 304
1982183N13253 1982 41 EP MM CARLOTTA 1982-07-05 09:00:00 TS 20.3393 -117.667 main 756 748 P_________P___ EP031982 20.3425 -117.673 TD 25 -1 20.3300 -117.651 1 26 4 316
1982183N13253 1982 41 EP MM CARLOTTA 1982-07-05 12:00:00 TS 20.5000 -117.800 25 hurdat_epa main 748 741 O_________O___ hurdat_epa EP031982 20.5000 -117.800 TD 25 -1 20.5000 -117.800 1 25 4 323
1982183N13253 1982 41 EP MM CARLOTTA 1982-07-05 15:00:00 TS 20.6453 -117.916 main 749 742 P_________P___ EP031982 20.6275 -117.923 TD 25 -1 20.6987 -117.898 1 25 4 332
1982183N13253 1982 41 EP MM CARLOTTA 1982-07-05 18:00:00 TS 20.8300 -117.989 25 hurdat_epa main 743 723 O_________P___ hurdat_epa EP031982 20.8000 -118.000 TD 25 -1 20.9199 -117.955 1 25 5 349
1982183N13253 1982 41 EP MM CARLOTTA 1982-07-05 21:00:00 TS 21.0916 -118.009 main 723 704 P_________P___ EP031982 21.0700 -118.018 TD 25 -1 21.1562 -117.984 1 25 6 357
1982183N13253 1982 41 EP MM CARLOTTA 1982-07-06 00:00:00 TS 21.4000 -118.000 25 hurdat_epa main 704 O_________O___ hurdat_epa EP031982 21.4000 -118.000 TD 25 -1 21.4000 -118.000 1 25 6 3

About IBTrACS Database

This database is a web-friendly format of International Best Track Archive for Climate Stewardship (IBTrACS), a global best track data archive curated by NOAA dating back to 1842.

Updated: 2021-10-27